createdAt,value
2018-11-29T00:01:04.648Z,99.90
2018-11-29T00:03:33.435Z,99.90
2018-11-29T00:06:02.363Z,99.90
2018-11-29T00:08:31.379Z,99.90
2018-11-29T00:11:00.339Z,99.90
2018-11-29T00:19:11.881Z,99.90
2018-11-29T00:21:41.043Z,99.90
2018-11-29T00:24:10.853Z,99.90
2018-11-29T00:26:39.884Z,99.90
2018-11-29T00:29:08.908Z,99.90
2018-11-29T00:31:37.875Z,99.90
2018-11-29T00:34:07.596Z,99.90
2018-11-29T00:36:36.504Z,99.90
2018-11-29T00:39:07.330Z,99.90
2018-11-29T00:41:38.447Z,99.90
2018-11-29T00:44:07.405Z,99.90
2018-11-29T00:46:36.523Z,99.90
2018-11-29T00:49:05.997Z,99.90
2018-11-29T00:51:35.203Z,99.90
2018-11-29T00:54:04.368Z,99.90
2018-11-29T00:56:33.397Z,99.90
2018-11-29T00:59:02.414Z,99.90
2018-11-29T01:01:32.056Z,99.90
2018-11-29T01:04:01.294Z,99.90
2018-11-29T01:06:30.333Z,99.90
2018-11-29T01:08:59.896Z,99.90
2018-11-29T01:11:29.056Z,99.90
2018-11-29T01:13:58.776Z,99.90
2018-11-29T01:16:28.184Z,99.90
2018-11-29T01:18:57.332Z,99.90
2018-11-29T01:21:26.379Z,99.90
2018-11-29T01:23:56.012Z,99.90
2018-11-29T01:26:25.090Z,99.90
2018-11-29T01:34:35.896Z,99.90
2018-11-29T01:37:05.008Z,99.90
2018-11-29T01:39:33.853Z,99.90
2018-11-29T01:42:02.880Z,99.90
2018-11-29T01:44:31.733Z,99.90
2018-11-29T01:47:00.689Z,99.90
2018-11-29T01:49:29.580Z,99.90
2018-11-29T01:51:58.921Z,99.90
2018-11-29T01:54:28.172Z,99.90
2018-11-29T01:56:57.736Z,99.90
2018-11-29T01:59:26.765Z,99.90
2018-11-29T02:01:55.684Z,99.90
2018-11-29T02:04:24.562Z,99.90
2018-11-29T02:06:53.788Z,99.90
2018-11-29T02:09:22.646Z,99.90
2018-11-29T02:11:52.697Z,99.90
2018-11-29T02:14:21.570Z,99.90
2018-11-29T02:16:50.471Z,99.90
2018-11-29T02:19:19.422Z,99.90
2018-11-29T02:21:48.234Z,99.90
2018-11-29T02:27:08.033Z,99.90
2018-11-29T02:29:36.887Z,99.90
2018-11-29T02:32:05.782Z,99.90
2018-11-29T02:34:34.765Z,99.90
2018-11-29T02:37:03.681Z,99.90
2018-11-29T02:39:32.778Z,99.90
2018-11-29T02:42:01.534Z,99.90
2018-11-29T02:44:30.649Z,99.90
2018-11-29T02:46:59.458Z,99.90
2018-11-29T02:49:28.321Z,99.90
2018-11-29T02:51:57.203Z,99.90
2018-11-29T02:54:26.341Z,99.90
2018-11-29T02:56:55.889Z,99.90
2018-11-29T02:59:24.803Z,99.90
2018-11-29T03:01:53.501Z,99.90
2018-11-29T03:04:22.316Z,99.90
2018-11-29T03:06:51.163Z,99.90
2018-11-29T03:09:20.175Z,99.90
2018-11-29T03:11:48.988Z,99.90
2018-11-29T03:14:17.763Z,99.90
2018-11-29T03:16:46.672Z,99.90
2018-11-29T03:19:15.818Z,99.90
2018-11-29T03:21:44.858Z,99.90
2018-11-29T03:24:13.882Z,99.90
2018-11-29T03:26:42.778Z,99.90
2018-11-29T03:29:11.560Z,99.90
2018-11-29T03:31:40.617Z,99.90
2018-11-29T03:34:09.464Z,99.90
2018-11-29T03:36:38.515Z,99.90
2018-11-29T03:39:08.085Z,99.90
2018-11-29T03:41:37.421Z,99.90
2018-11-29T03:44:06.408Z,99.90
2018-11-29T03:46:35.293Z,99.90
2018-11-29T03:49:04.693Z,99.90
2018-11-29T03:51:34.356Z,99.90
2018-11-29T03:54:03.458Z,99.90
2018-11-29T03:56:32.365Z,99.90
2018-11-29T03:59:01.113Z,99.90
2018-11-29T04:01:30.014Z,99.90
2018-11-29T04:03:58.810Z,99.90
2018-11-29T04:06:28.560Z,99.90
2018-11-29T04:08:57.928Z,99.90
2018-11-29T04:11:26.936Z,99.90
2018-11-29T04:13:55.961Z,99.90
2018-11-29T04:16:24.811Z,99.90
2018-11-29T04:18:53.883Z,99.90
2018-11-29T04:21:22.765Z,99.90
2018-11-29T04:23:51.577Z,99.90
2018-11-29T04:26:20.443Z,99.90
2018-11-29T04:28:49.634Z,99.90
2018-11-29T04:31:18.448Z,99.90
2018-11-29T04:33:48.235Z,99.90
2018-11-29T04:36:17.140Z,99.90
2018-11-29T04:38:46.087Z,99.90
2018-11-29T04:41:14.968Z,99.90
2018-11-29T04:43:44.452Z,99.90
2018-11-29T04:46:47.285Z,99.90
2018-11-29T04:49:16.417Z,99.90
2018-11-29T04:51:45.254Z,99.90
2018-11-29T04:54:14.093Z,99.90
2018-11-29T04:56:43.371Z,99.90
2018-11-29T04:59:12.413Z,99.90
2018-11-29T05:01:41.280Z,99.90
2018-11-29T05:04:10.130Z,99.90
2018-11-29T05:06:38.921Z,99.90
2018-11-29T05:09:09.329Z,99.90
2018-11-29T05:11:38.700Z,99.90
2018-11-29T05:14:07.686Z,99.90
2018-11-29T05:16:36.663Z,99.90
2018-11-29T05:19:06.150Z,99.90
2018-11-29T05:21:35.079Z,99.90
2018-11-29T05:24:03.860Z,99.90
2018-11-29T05:26:32.893Z,99.90
2018-11-29T05:29:01.656Z,99.90
2018-11-29T05:31:31.532Z,99.90
2018-11-29T05:34:00.658Z,99.90
2018-11-29T05:36:30.114Z,99.90
2018-11-29T05:38:58.990Z,99.90
2018-11-29T05:41:27.918Z,99.90
2018-11-29T05:43:56.796Z,99.90
2018-11-29T05:46:26.042Z,99.90
2018-11-29T05:48:55.504Z,99.90
2018-11-29T05:51:24.468Z,99.90
2018-11-29T05:53:53.332Z,99.90
2018-11-29T05:56:22.319Z,99.90
2018-11-29T05:58:51.392Z,99.90
2018-11-29T06:01:23.723Z,99.90
2018-11-29T06:03:52.932Z,99.90
2018-11-29T06:06:21.843Z,99.90
2018-11-29T06:08:50.677Z,99.90
2018-11-29T06:11:23.420Z,99.90
2018-11-29T06:13:53.058Z,99.90
2018-11-29T06:16:22.462Z,99.90
2018-11-29T06:18:52.073Z,99.90
2018-11-29T06:21:21.948Z,99.90
2018-11-29T06:23:50.940Z,99.90
2018-11-29T06:26:20.035Z,99.90
2018-11-29T06:28:48.988Z,99.90
2018-11-29T06:31:18.784Z,99.90
2018-11-29T06:33:47.691Z,99.90
2018-11-29T06:36:17.030Z,99.90
2018-11-29T06:38:46.134Z,99.90
2018-11-29T06:41:15.136Z,99.90
2018-11-29T06:43:44.017Z,99.90
2018-11-29T06:46:12.924Z,99.90
2018-11-29T06:48:41.830Z,99.90
2018-11-29T06:51:11.533Z,99.90
2018-11-29T06:53:45.502Z,99.90
2018-11-29T06:56:14.611Z,99.90
2018-11-29T06:58:43.571Z,99.90
2018-11-29T07:01:12.597Z,99.90
2018-11-29T07:03:41.605Z,99.90
2018-11-29T07:06:10.596Z,99.90
2018-11-29T07:08:39.613Z,99.90
2018-11-29T07:11:08.621Z,99.90
2018-11-29T07:13:37.690Z,99.90
2018-11-29T07:16:07.140Z,99.90
2018-11-29T07:18:36.184Z,99.90
2018-11-29T07:21:16.341Z,99.90
2018-11-29T07:23:45.265Z,99.90
2018-11-29T07:26:14.321Z,99.90
2018-11-29T07:28:43.391Z,99.90
2018-11-29T07:31:12.565Z,99.90
2018-11-29T07:33:41.428Z,99.90
2018-11-29T07:36:10.872Z,99.90
2018-11-29T07:38:39.887Z,99.90
2018-11-29T07:41:08.848Z,99.90
2018-11-29T07:43:41.605Z,99.90
2018-11-29T07:46:10.636Z,99.90
2018-11-29T07:48:39.598Z,99.90
2018-11-29T07:51:10.279Z,99.90
2018-11-29T07:53:43.113Z,99.90
2018-11-29T07:56:12.454Z,99.90
2018-11-29T07:58:41.455Z,99.90
2018-11-29T08:01:10.618Z,99.90
2018-11-29T08:03:40.369Z,99.90
2018-11-29T08:06:09.367Z,99.90
2018-11-29T08:08:38.285Z,99.90
2018-11-29T08:11:07.636Z,99.90
2018-11-29T08:13:36.718Z,99.90
2018-11-29T08:16:07.276Z,99.90
2018-11-29T08:18:36.378Z,99.90
2018-11-29T08:21:05.612Z,99.90
2018-11-29T08:23:34.968Z,99.90
2018-11-29T08:26:04.052Z,99.90
2018-11-29T08:28:33.272Z,99.90
2018-11-29T08:31:02.519Z,99.90
2018-11-29T08:33:31.549Z,99.90
2018-11-29T08:36:00.744Z,99.90
2018-11-29T08:38:29.831Z,99.90
2018-11-29T08:40:58.919Z,99.90
2018-11-29T08:43:27.719Z,99.90
2018-11-29T08:45:56.769Z,99.90
2018-11-29T08:48:25.792Z,99.90
2018-11-29T08:50:54.834Z,99.90
2018-11-29T08:53:23.830Z,99.90
2018-11-29T08:56:01.844Z,99.90
2018-11-29T08:58:30.861Z,99.90
2018-11-29T09:00:59.839Z,99.90
2018-11-29T09:03:28.913Z,99.90
2018-11-29T09:05:57.918Z,99.90
2018-11-29T09:08:27.964Z,99.90
2018-11-29T09:10:57.064Z,99.90
2018-11-29T09:13:26.061Z,99.90
2018-11-29T09:15:55.092Z,99.90
2018-11-29T09:18:25.238Z,99.90
2018-11-29T09:20:54.226Z,99.90
2018-11-29T09:23:23.510Z,99.90
2018-11-29T09:25:53.261Z,99.90
2018-11-29T09:28:22.340Z,99.90
2018-11-29T09:30:51.290Z,99.90
2018-11-29T09:33:22.148Z,99.90
2018-11-29T09:35:51.057Z,99.90
2018-11-29T09:38:20.199Z,99.90
2018-11-29T09:40:49.292Z,99.90
2018-11-29T09:43:18.433Z,99.90
2018-11-29T09:45:47.536Z,99.90
2018-11-29T09:48:17.238Z,99.90
2018-11-29T09:50:46.096Z,99.90
2018-11-29T09:53:15.054Z,99.90
2018-11-29T09:55:43.982Z,99.90
2018-11-29T09:58:12.949Z,99.90
2018-11-29T10:00:41.929Z,99.90
2018-11-29T10:03:12.336Z,99.90
2018-11-29T10:05:42.513Z,99.90
2018-11-29T10:08:12.700Z,99.90
2018-11-29T10:10:41.494Z,99.90
2018-11-29T10:13:10.431Z,99.90
2018-11-29T10:15:39.321Z,99.90
2018-11-29T10:18:09.343Z,99.90
2018-11-29T10:20:39.077Z,99.90
2018-11-29T10:23:09.095Z,99.90
2018-11-29T10:25:39.543Z,99.90
2018-11-29T10:28:14.879Z,99.90
2018-11-29T10:30:50.653Z,99.90
2018-11-29T10:33:19.917Z,99.90
2018-11-29T10:35:48.813Z,99.90
2018-11-29T10:38:17.756Z,99.90
2018-11-29T10:40:47.395Z,99.90
2018-11-29T10:43:16.500Z,99.90
2018-11-29T10:45:45.549Z,99.90
2018-11-29T10:48:18.007Z,99.90
2018-11-29T10:50:47.018Z,99.90
2018-11-29T10:53:16.069Z,99.90
2018-11-29T10:55:44.946Z,99.90
2018-11-29T10:58:14.026Z,99.90
2018-11-29T11:00:48.392Z,99.90
2018-11-29T11:03:18.912Z,99.90
2018-11-29T11:05:50.040Z,99.90
2018-11-29T11:08:19.196Z,99.90
2018-11-29T11:10:48.335Z,99.90
2018-11-29T11:13:17.485Z,99.90
2018-11-29T11:15:47.551Z,99.90
2018-11-29T11:18:17.612Z,99.90
2018-11-29T11:20:46.705Z,99.90
2018-11-29T11:23:16.045Z,99.90
2018-11-29T11:25:45.146Z,99.90
2018-11-29T11:28:14.286Z,99.90
2018-11-29T11:30:44.463Z,99.90
2018-11-29T11:33:13.388Z,99.90
2018-11-29T11:35:42.244Z,99.90
2018-11-29T11:38:11.428Z,99.90
2018-11-29T11:40:40.527Z,99.90
2018-11-29T11:43:09.616Z,99.90
2018-11-29T11:45:39.836Z,99.90
2018-11-29T11:48:08.805Z,99.90
2018-11-29T11:50:38.149Z,99.90
2018-11-29T11:53:08.249Z,99.90
2018-11-29T11:55:37.689Z,99.90
2018-11-29T11:58:07.721Z,99.90
2018-11-29T12:00:37.294Z,99.90
2018-11-29T12:03:12.241Z,99.90
2018-11-29T12:05:41.612Z,99.90
2018-11-29T12:08:10.989Z,99.90
2018-11-29T12:10:41.088Z,99.90
2018-11-29T12:13:10.251Z,99.90
2018-11-29T12:15:39.255Z,99.90
2018-11-29T12:18:10.421Z,99.90
2018-11-29T12:20:39.711Z,99.90
2018-11-29T12:23:15.636Z,99.90
2018-11-29T12:25:44.779Z,99.90
2018-11-29T12:28:14.079Z,99.90
2018-11-29T12:30:46.707Z,99.90
2018-11-29T12:33:16.241Z,99.90
2018-11-29T12:35:45.177Z,99.90
2018-11-29T12:38:14.290Z,99.90
2018-11-29T12:40:43.178Z,99.90
2018-11-29T12:43:12.171Z,99.90
2018-11-29T12:45:41.036Z,99.90
2018-11-29T12:48:10.024Z,99.90
2018-11-29T12:50:39.864Z,99.90
2018-11-29T12:53:10.145Z,99.90
2018-11-29T12:55:41.423Z,99.90
2018-11-29T12:58:10.951Z,99.90
2018-11-29T13:00:39.896Z,99.90
2018-11-29T13:03:09.128Z,99.90
2018-11-29T13:05:38.714Z,99.90
2018-11-29T13:08:08.445Z,99.90
2018-11-29T13:10:37.412Z,99.90
2018-11-29T13:13:07.387Z,99.90
2018-11-29T13:15:36.569Z,99.90
2018-11-29T13:18:08.357Z,99.90
2018-11-29T13:20:37.582Z,99.90
2018-11-29T13:23:06.934Z,99.90
2018-11-29T13:25:35.968Z,99.90
2018-11-29T13:28:05.109Z,99.90
2018-11-29T13:30:34.304Z,99.90
2018-11-29T13:33:03.269Z,99.90
2018-11-29T13:35:34.361Z,99.90
2018-11-29T13:38:10.502Z,99.90
2018-11-29T13:40:41.101Z,99.90
2018-11-29T13:43:10.240Z,99.90
2018-11-29T13:45:39.540Z,99.90
2018-11-29T13:48:10.387Z,99.90
2018-11-29T13:50:40.067Z,99.90
2018-11-29T13:53:09.210Z,99.90
2018-11-29T13:55:38.715Z,99.90
2018-11-29T13:58:07.587Z,99.90
2018-11-29T14:00:37.523Z,99.90
2018-11-29T14:03:10.915Z,99.90
2018-11-29T14:05:40.127Z,99.90
2018-11-29T14:08:09.988Z,99.90
2018-11-29T14:10:40.770Z,99.90
2018-11-29T14:13:10.474Z,99.90
2018-11-29T14:15:39.668Z,99.90
2018-11-29T14:18:08.843Z,99.90
2018-11-29T14:20:38.990Z,99.90
2018-11-29T14:23:08.107Z,99.90
2018-11-29T14:25:37.439Z,99.90
2018-11-29T14:28:07.613Z,99.90
2018-11-29T14:30:37.113Z,99.90
2018-11-29T14:33:17.616Z,99.90
2018-11-29T14:35:46.802Z,99.90
2018-11-29T14:38:15.864Z,99.90
2018-11-29T14:40:45.078Z,99.90
2018-11-29T14:43:21.730Z,99.90
2018-11-29T14:45:51.156Z,99.90
2018-11-29T14:48:26.366Z,99.90
2018-11-29T14:51:05.057Z,99.90
2018-11-29T14:53:34.426Z,99.90
2018-11-29T14:56:03.752Z,99.90
2018-11-29T14:58:33.403Z,99.90
2018-11-29T15:01:02.563Z,99.90
2018-11-29T15:03:31.895Z,99.90
2018-11-29T15:06:01.124Z,99.90
2018-11-29T15:08:30.091Z,99.90
2018-11-29T15:10:59.453Z,99.90
2018-11-29T15:13:28.685Z,99.90
2018-11-29T15:15:57.717Z,99.90
2018-11-29T15:18:26.992Z,99.90
2018-11-29T15:20:55.901Z,99.90
2018-11-29T15:23:25.208Z,99.90
2018-11-29T15:25:54.061Z,99.90
2018-11-29T15:28:23.068Z,99.90
2018-11-29T15:30:52.099Z,99.90
2018-11-29T15:33:21.282Z,99.90
2018-11-29T15:35:51.199Z,99.90
2018-11-29T15:38:20.876Z,99.90
2018-11-29T15:40:49.904Z,99.90
2018-11-29T15:43:18.964Z,99.90
2018-11-29T15:45:47.968Z,99.90
2018-11-29T15:48:17.286Z,99.90
2018-11-29T15:50:46.404Z,99.90
2018-11-29T15:53:15.578Z,99.90
2018-11-29T15:55:44.794Z,99.90
2018-11-29T15:58:13.849Z,99.90
2018-11-29T16:00:42.937Z,99.90
2018-11-29T16:03:11.924Z,99.90
2018-11-29T16:05:41.171Z,99.90
2018-11-29T16:08:09.940Z,99.90
2018-11-29T16:10:39.165Z,99.90
2018-11-29T16:13:09.551Z,99.90
2018-11-29T16:15:38.748Z,99.90
2018-11-29T16:18:07.988Z,99.90
2018-11-29T16:20:38.714Z,99.90
2018-11-29T16:23:08.795Z,99.90
2018-11-29T16:25:37.714Z,99.90
2018-11-29T16:28:10.996Z,99.90
2018-11-29T16:30:45.700Z,99.90
2018-11-29T16:33:20.368Z,99.90
2018-11-29T16:35:49.604Z,99.90
2018-11-29T16:38:18.895Z,99.90
2018-11-29T16:40:48.129Z,99.90
2018-11-29T16:43:17.356Z,99.90
2018-11-29T16:45:52.664Z,99.90
2018-11-29T16:48:29.359Z,99.90
2018-11-29T16:50:58.461Z,99.90
2018-11-29T16:53:27.995Z,99.90
2018-11-29T16:55:57.171Z,99.90
2018-11-29T16:58:28.306Z,99.80
2018-11-29T17:00:57.705Z,99.80
2018-11-29T17:03:27.092Z,99.70
2018-11-29T17:05:56.524Z,99.70
2018-11-29T17:08:26.159Z,99.80
2018-11-29T17:10:56.440Z,99.70
2018-11-29T17:13:26.056Z,99.70
2018-11-29T17:15:55.220Z,99.90
2018-11-29T17:18:24.254Z,99.80
2018-11-29T17:20:53.430Z,99.80
2018-11-29T17:23:22.689Z,99.80
2018-11-29T17:25:51.703Z,99.90
2018-11-29T17:28:20.817Z,99.90
2018-11-29T17:30:49.960Z,99.90
2018-11-29T17:33:19.111Z,99.80
2018-11-29T17:35:48.190Z,99.80
2018-11-29T17:38:19.087Z,99.80
2018-11-29T17:40:48.416Z,99.80
2018-11-29T17:43:17.540Z,99.80
2018-11-29T17:45:46.619Z,99.80
2018-11-29T17:48:15.685Z,99.90
2018-11-29T17:50:45.376Z,99.90
2018-11-29T17:53:14.426Z,99.90
2018-11-29T17:55:43.726Z,99.90
2018-11-29T17:58:15.594Z,99.90
2018-11-29T18:00:46.102Z,99.90
2018-11-29T18:03:17.988Z,99.90
2018-11-29T18:05:47.042Z,99.90
2018-11-29T18:08:16.046Z,99.90
2018-11-29T18:10:45.653Z,99.90
2018-11-29T18:13:17.296Z,99.90
2018-11-29T18:15:46.463Z,99.90
2018-11-29T18:18:15.889Z,99.90
2018-11-29T18:20:46.199Z,99.90
2018-11-29T18:23:15.738Z,99.90
2018-11-29T18:25:45.658Z,99.90
2018-11-29T18:28:15.676Z,99.90
2018-11-29T18:30:47.331Z,99.90
2018-11-29T18:33:16.961Z,99.90
2018-11-29T18:35:47.361Z,99.90
2018-11-29T18:38:18.725Z,99.90
2018-11-29T18:40:49.400Z,99.90
2018-11-29T18:43:18.652Z,99.90
2018-11-29T18:45:48.180Z,99.90
2018-11-29T18:48:17.505Z,99.90
2018-11-29T18:50:47.634Z,99.90
2018-11-29T18:53:16.923Z,99.90
2018-11-29T18:55:46.333Z,99.90
2018-11-29T18:58:15.514Z,99.90
2018-11-29T19:00:44.852Z,99.90
2018-11-29T19:03:14.241Z,99.90
2018-11-29T19:05:44.216Z,99.90
2018-11-29T19:08:14.588Z,99.90
2018-11-29T19:10:44.038Z,99.90
2018-11-29T19:13:14.125Z,99.90
2018-11-29T19:15:43.487Z,99.90
2018-11-29T19:18:12.732Z,99.90
2018-11-29T19:20:42.428Z,99.90
2018-11-29T19:23:11.742Z,99.90
2018-11-29T19:25:41.616Z,99.90
2018-11-29T19:28:10.847Z,99.90
2018-11-29T19:30:40.676Z,99.80
2018-11-29T19:33:18.744Z,99.80
2018-11-29T19:35:50.123Z,99.80
2018-11-29T19:38:19.275Z,99.80
2018-11-29T19:40:48.753Z,99.80
2018-11-29T19:43:18.107Z,99.80
2018-11-29T19:45:47.437Z,99.80
2018-11-29T19:48:16.441Z,99.70
2018-11-29T19:50:45.717Z,99.70
2018-11-29T19:53:23.370Z,99.70
2018-11-29T19:55:54.478Z,99.70
2018-11-29T19:58:23.578Z,99.50
2018-11-29T20:00:52.931Z,99.40
2018-11-29T20:03:22.078Z,99.30
2018-11-29T20:05:51.523Z,99.30
2018-11-29T20:08:20.630Z,99.20
2018-11-29T20:10:49.983Z,99.10
2018-11-29T20:13:19.090Z,99.00
2018-11-29T20:15:49.951Z,98.80
2018-11-29T20:18:19.103Z,98.90
2018-11-29T20:20:48.952Z,99.00
2018-11-29T20:23:24.228Z,98.90
2018-11-29T20:25:53.226Z,99.00
2018-11-29T20:28:22.462Z,99.00
2018-11-29T20:30:51.752Z,98.90
2018-11-29T20:33:21.003Z,99.20
2018-11-29T20:35:50.394Z,98.90
2018-11-29T20:38:19.387Z,98.90
2018-11-29T20:40:48.645Z,98.90
2018-11-29T20:43:17.723Z,98.90
2018-11-29T20:45:49.818Z,98.80
2018-11-29T20:48:21.312Z,98.70
2018-11-29T20:50:51.309Z,98.70
2018-11-29T20:53:22.576Z,98.70
2018-11-29T20:55:51.450Z,98.70
2018-11-29T20:58:20.351Z,98.70
2018-11-29T21:00:49.389Z,98.60
2018-11-29T21:03:18.701Z,98.60
2018-11-29T21:05:47.793Z,98.60
2018-11-29T21:08:16.955Z,98.50
2018-11-29T21:10:46.200Z,98.50
2018-11-29T21:13:15.057Z,98.40
2018-11-29T21:15:44.197Z,98.50
2018-11-29T21:18:15.110Z,98.40
2018-11-29T21:20:44.626Z,98.50
2018-11-29T21:23:14.830Z,98.50
2018-11-29T21:25:44.571Z,98.50
2018-11-29T21:28:13.629Z,98.60
2018-11-29T21:30:42.563Z,98.50
2018-11-29T21:33:11.837Z,98.60
2018-11-29T21:35:40.843Z,98.60
2018-11-29T21:38:14.206Z,98.60
2018-11-29T21:40:52.716Z,98.60
2018-11-29T21:43:21.668Z,98.60
2018-11-29T21:45:50.789Z,98.60
2018-11-29T21:48:20.514Z,98.60
2018-11-29T21:50:49.510Z,98.70
2018-11-29T21:53:18.400Z,98.60
2018-11-29T21:55:47.928Z,98.60
2018-11-29T21:58:17.131Z,98.60
2018-11-29T22:00:46.435Z,98.60
2018-11-29T22:03:15.273Z,98.50
2018-11-29T22:05:44.206Z,98.50
2018-11-29T22:08:13.117Z,98.50
2018-11-29T22:10:42.341Z,98.50
2018-11-29T22:13:11.263Z,98.50
2018-11-29T22:15:40.951Z,98.50
2018-11-29T22:18:28.314Z,98.50
2018-11-29T22:21:01.900Z,98.50
2018-11-29T22:23:31.490Z,98.50
2018-11-29T22:26:01.843Z,98.50
2018-11-29T22:28:31.569Z,98.50
2018-11-29T22:31:02.472Z,98.50
2018-11-29T22:33:31.717Z,98.80
2018-11-29T22:36:00.688Z,98.50
2018-11-29T22:38:29.712Z,98.50
2018-11-29T22:40:58.949Z,98.60
2018-11-29T22:43:28.213Z,98.60
2018-11-29T22:45:57.055Z,98.60
2018-11-29T22:48:26.029Z,98.60
2018-11-29T22:50:56.002Z,98.70
2018-11-29T22:53:25.662Z,98.70
2018-11-29T22:55:54.822Z,98.70
2018-11-29T22:58:24.099Z,98.70
2018-11-29T23:00:53.630Z,98.70
2018-11-29T23:03:22.907Z,98.70
2018-11-29T23:05:52.109Z,98.70
2018-11-29T23:08:21.354Z,98.70
2018-11-29T23:10:50.317Z,98.70
2018-11-29T23:13:19.288Z,98.80
2018-11-29T23:15:48.359Z,98.80
2018-11-29T23:18:18.158Z,98.80
2018-11-29T23:20:47.428Z,98.80
2018-11-29T23:23:16.683Z,98.80
2018-11-29T23:25:45.795Z,98.90
2018-11-29T23:28:14.763Z,98.90
2018-11-29T23:30:43.771Z,99.00
2018-11-29T23:33:12.771Z,99.00
2018-11-29T23:35:43.112Z,99.00
2018-11-29T23:38:12.771Z,99.00
2018-11-29T23:40:41.831Z,99.10
2018-11-29T23:43:11.283Z,99.10
2018-11-29T23:45:40.365Z,99.10
2018-11-29T23:48:09.495Z,99.10
2018-11-29T23:50:38.567Z,99.10
2018-11-29T23:53:07.767Z,99.20
2018-11-29T23:55:36.792Z,99.20
2018-11-29T23:58:06.749Z,99.20
